createdAt,value
2022-08-16T00:02:46.247Z,22.3
2022-08-16T00:07:56.264Z,22.2
2022-08-16T00:12:59.039Z,22.1
2022-08-16T00:18:04.750Z,22.0
2022-08-16T00:23:10.954Z,21.9
2022-08-16T00:28:17.164Z,21.9
2022-08-16T00:33:23.371Z,21.8
2022-08-16T00:38:41.349Z,21.8
2022-08-16T00:43:42.655Z,21.8
2022-08-16T00:48:44.127Z,21.8
2022-08-16T00:53:48.203Z,21.7
2022-08-16T00:58:54.416Z,21.7
2022-08-16T01:04:00.642Z,21.6
2022-08-16T01:09:06.836Z,21.5
2022-08-16T01:14:13.633Z,21.4
2022-08-16T01:19:19.249Z,21.3
2022-08-16T01:24:51.451Z,21.2
2022-08-16T01:29:56.764Z,21.2
2022-08-16T01:34:47.030Z,21.1
2022-08-16T01:39:44.185Z,21.1
2022-08-16T01:44:50.298Z,20.9
2022-08-16T01:51:05.039Z,20.9
2022-08-16T01:55:02.709Z,20.8
2022-08-16T02:00:10.456Z,20.8
2022-08-16T02:05:15.129Z,20.7
2022-08-16T02:10:21.333Z,20.7
2022-08-16T02:15:27.550Z,20.6
2022-08-16T02:20:33.758Z,20.6
2022-08-16T02:25:52.674Z,20.6
2022-08-16T02:30:50.599Z,20.6
2022-08-16T02:35:55.101Z,20.5
2022-08-16T02:40:57.616Z,20.5
2022-08-16T02:46:07.643Z,20.5
2022-08-16T02:51:11.320Z,20.4
2022-08-16T02:56:16.282Z,20.4
2022-08-16T03:01:24.683Z,20.3
2022-08-16T03:06:41.524Z,20.3
2022-08-16T03:11:35.301Z,20.3
2022-08-16T03:16:58.638Z,20.3
2022-08-16T03:21:47.270Z,20.3
2022-08-16T03:26:53.481Z,20.2
2022-08-16T03:32:01.130Z,20.2
2022-08-16T03:37:05.895Z,20.2
2022-08-16T03:42:12.110Z,20.2
2022-08-16T03:47:19.001Z,20.2
2022-08-16T03:52:31.343Z,20.1
2022-08-16T03:57:31.878Z,20.1
2022-08-16T04:02:36.940Z,20.0
2022-08-16T04:07:43.149Z,20.0
2022-08-16T04:12:53.170Z,20.0
2022-08-16T04:17:55.568Z,19.9
2022-08-16T04:23:01.777Z,19.9
2022-08-16T04:28:52.144Z,19.9
2022-08-16T04:33:14.198Z,19.9
2022-08-16T04:38:21.284Z,19.9
2022-08-16T04:43:26.941Z,19.8
2022-08-16T04:48:34.390Z,19.8
2022-08-16T04:53:41.302Z,19.8
2022-08-16T04:58:46.618Z,19.8
2022-08-16T05:04:00.809Z,19.9
2022-08-16T05:08:57.650Z,19.9
2022-08-16T05:14:06.756Z,19.9
2022-08-16T05:19:13.190Z,19.9
2022-08-16T05:24:16.279Z,20.0
2022-08-16T05:29:24.787Z,20.0
2022-08-16T05:34:28.693Z,20.0
2022-08-16T05:39:40.621Z,20.1
2022-08-16T05:44:41.118Z,20.1
2022-08-16T05:49:50.526Z,20.2
2022-08-16T05:55:01.104Z,20.2
2022-08-16T06:00:01.171Z,20.3
2022-08-16T06:05:05.947Z,20.4
2022-08-16T06:10:12.155Z,20.5
2022-08-16T06:15:18.366Z,20.6
2022-08-16T06:20:25.591Z,20.7
2022-08-16T06:25:35.974Z,20.9
2022-08-16T06:30:43.877Z,21.0
2022-08-16T06:35:43.201Z,21.2
2022-08-16T06:40:49.448Z,21.4
2022-08-16T06:45:55.620Z,21.6
2022-08-16T06:51:01.825Z,21.9
2022-08-16T06:56:14.241Z,22.2
2022-08-16T07:01:15.815Z,22.5
2022-08-16T07:06:21.877Z,22.8
2022-08-16T07:11:45.988Z,23.2
2022-08-16T07:16:32.878Z,23.5
2022-08-16T07:21:46.623Z,23.8
2022-08-16T07:26:48.562Z,24.1
2022-08-16T07:31:51.497Z,24.3
2022-08-16T07:36:58.098Z,24.6
2022-08-16T07:42:03.917Z,24.9
2022-08-16T07:47:11.237Z,25.2
2022-08-16T07:52:20.053Z,25.5
2022-08-16T07:57:24.049Z,25.7
2022-08-16T08:02:28.754Z,25.9
2022-08-16T08:07:33.972Z,26.2
2022-08-16T08:12:40.179Z,26.4
2022-08-16T08:17:46.408Z,26.6
2022-08-16T08:22:52.602Z,26.8
2022-08-16T08:27:58.829Z,27.0
2022-08-16T08:33:05.416Z,27.2
2022-08-16T08:38:11.252Z,27.4
2022-08-16T08:43:18.329Z,27.6
2022-08-16T08:48:33.412Z,27.8
2022-08-16T08:53:30.347Z,27.9
2022-08-16T08:58:36.105Z,28.0
2022-08-16T09:03:42.349Z,28.2
2022-08-16T09:08:48.540Z,28.3
2022-08-16T09:13:54.761Z,28.5
2022-08-16T09:19:03.799Z,28.7
2022-08-16T09:24:10.011Z,28.9
2022-08-16T09:29:16.849Z,29.1
2022-08-16T09:34:19.654Z,29.3
2022-08-16T09:39:25.922Z,29.5
2022-08-16T09:45:09.723Z,29.6
2022-08-16T09:49:40.984Z,29.7
2022-08-16T09:54:45.317Z,29.8
2022-08-16T09:59:56.194Z,29.9
2022-08-16T10:04:57.097Z,30.1
2022-08-16T10:10:03.190Z,30.2
2022-08-16T10:15:09.403Z,30.3
2022-08-16T10:20:18.541Z,30.4
2022-08-16T10:27:16.614Z,30.5
2022-08-16T10:30:28.490Z,30.5
2022-08-16T10:35:34.275Z,30.6
2022-08-16T10:40:40.507Z,30.8
2022-08-16T10:45:57.229Z,30.9
2022-08-16T10:50:52.925Z,31.0
2022-08-16T10:55:59.148Z,31.1
2022-08-16T11:06:12.367Z,31.4
2022-08-16T11:11:19.683Z,31.5
2022-08-16T11:16:27.810Z,31.6
2022-08-16T11:21:30.239Z,31.7
2022-08-16T11:26:36.429Z,31.7
2022-08-16T11:31:45.846Z,31.8
2022-08-16T11:36:53.530Z,32.0
2022-08-16T11:41:55.055Z,32.1
2022-08-16T11:47:01.495Z,32.2
2022-08-16T11:52:07.484Z,32.2
2022-08-16T11:57:13.691Z,32.3
2022-08-16T12:02:31.115Z,32.1
2022-08-16T12:07:26.116Z,31.9
2022-08-16T12:12:32.775Z,31.7
2022-08-16T12:17:38.527Z,31.6
2022-08-16T12:22:44.798Z,31.4
2022-08-16T12:27:50.951Z,31.3
2022-08-16T12:32:58.481Z,31.2
2022-08-16T12:38:10.353Z,31.1
2022-08-16T12:43:09.623Z,31.3
2022-08-16T12:48:33.782Z,31.5
2022-08-16T12:53:22.009Z,31.7
2022-08-16T12:58:49.442Z,31.9
2022-08-16T13:03:40.193Z,32.1
2022-08-16T13:08:40.643Z,32.2
2022-08-16T13:13:46.852Z,32.3
2022-08-16T13:18:54.446Z,32.5
2022-08-16T13:23:59.271Z,32.7
2022-08-16T13:29:05.482Z,32.9
2022-08-16T13:34:11.695Z,33.0
2022-08-16T13:39:16.920Z,33.1
2022-08-16T13:44:35.941Z,33.2
2022-08-16T13:49:29.763Z,33.3
2022-08-16T13:54:35.565Z,33.4
2022-08-16T13:59:41.768Z,33.5
2022-08-16T14:04:47.983Z,33.6
2022-08-16T14:09:55.156Z,33.7
2022-08-16T14:15:00.399Z,33.6
2022-08-16T14:20:06.669Z,33.6
2022-08-16T14:25:12.825Z,33.5
2022-08-16T14:30:19.032Z,33.3
2022-08-16T14:35:36.601Z,33.1
2022-08-16T14:40:31.479Z,33.0
2022-08-16T14:45:37.665Z,32.9
2022-08-16T14:50:43.876Z,32.8
2022-08-16T14:55:50.122Z,32.7
2022-08-16T15:00:56.421Z,32.7
2022-08-16T15:06:02.512Z,32.7
2022-08-16T15:11:08.731Z,32.6
2022-08-16T15:16:14.967Z,32.7
2022-08-16T15:21:21.146Z,32.8
2022-08-16T15:26:29.742Z,32.8
2022-08-16T15:31:33.560Z,32.9
2022-08-16T15:36:39.773Z,32.9
2022-08-16T15:41:47.019Z,32.9
2022-08-16T15:46:55.750Z,32.9
2022-08-16T15:51:58.408Z,33.0
2022-08-16T15:57:11.396Z,33.0
2022-08-16T16:02:10.829Z,32.8
2022-08-16T16:07:17.060Z,32.6
2022-08-16T16:12:53.633Z,32.4
2022-08-16T16:17:29.460Z,32.2
2022-08-16T16:22:37.170Z,32.1
2022-08-16T16:27:41.930Z,31.8
2022-08-16T16:32:48.090Z,31.6
2022-08-16T16:37:54.303Z,31.4
2022-08-16T16:43:00.516Z,31.3
2022-08-16T16:48:12.648Z,31.2
2022-08-16T16:53:16.898Z,31.3
2022-08-16T16:58:35.508Z,31.3
2022-08-16T17:03:25.471Z,31.2
2022-08-16T17:08:31.570Z,31.0
2022-08-16T17:13:37.779Z,30.8
2022-08-16T17:19:16.658Z,30.6
2022-08-16T17:23:58.200Z,30.4
2022-08-16T17:28:58.071Z,30.3
2022-08-16T17:34:05.472Z,30.2
2022-08-16T17:39:09.422Z,30.2
2022-08-16T17:44:15.088Z,30.1
2022-08-16T17:49:21.294Z,29.9
2022-08-16T17:54:30.208Z,29.7
2022-08-16T17:59:38.373Z,29.6
2022-08-16T18:04:48.763Z,29.4
2022-08-16T18:09:46.173Z,29.2
2022-08-16T18:14:54.880Z,29.0
2022-08-16T18:19:58.614Z,28.8
2022-08-16T18:25:04.832Z,28.6
2022-08-16T18:30:11.060Z,28.4
2022-08-16T18:35:17.278Z,28.2
2022-08-16T18:40:23.500Z,28.0
2022-08-16T18:45:35.607Z,27.8
2022-08-16T18:51:03.941Z,0.0
2022-08-16T18:55:45.215Z,27.4
2022-08-16T19:00:56.083Z,27.2
2022-08-16T19:05:54.809Z,27.0
2022-08-16T19:11:00.048Z,26.9
2022-08-16T19:16:06.252Z,26.7
2022-08-16T19:21:12.461Z,26.6
2022-08-16T19:26:24.904Z,26.5
2022-08-16T19:31:24.894Z,26.3
2022-08-16T19:36:36.122Z,26.2
2022-08-16T19:41:36.331Z,26.1
2022-08-16T19:46:42.538Z,25.9
2022-08-16T19:51:48.749Z,25.8
2022-08-16T19:56:54.980Z,25.7
2022-08-16T20:02:01.166Z,25.6
2022-08-16T20:07:07.382Z,25.5
2022-08-16T20:12:13.583Z,25.4
2022-08-16T20:17:19.796Z,25.3
2022-08-16T20:22:52.067Z,25.2
2022-08-16T20:27:32.213Z,25.1
2022-08-16T20:32:38.420Z,25.0
2022-08-16T20:37:44.643Z,24.9
2022-08-16T20:42:57.448Z,24.8
2022-08-16T20:47:57.052Z,24.7
2022-08-16T20:53:03.263Z,24.5
2022-08-16T20:58:09.474Z,24.5
2022-08-16T21:03:15.682Z,24.3
2022-08-16T21:08:50.905Z,24.3
2022-08-16T21:13:28.105Z,24.1
2022-08-16T21:18:34.308Z,24.0
2022-08-16T21:23:40.519Z,23.8
2022-08-16T21:28:46.729Z,23.7
2022-08-16T21:33:55.219Z,23.7
2022-08-16T21:38:59.146Z,23.7
2022-08-16T21:44:05.370Z,23.6
2022-08-16T21:49:11.562Z,23.5
2022-08-16T21:54:17.772Z,23.5
2022-08-16T21:59:23.979Z,23.5
2022-08-16T22:04:37.678Z,23.4
2022-08-16T22:09:36.405Z,23.4
2022-08-16T22:14:42.605Z,23.4
2022-08-16T22:19:48.817Z,23.4
2022-08-16T22:24:55.036Z,23.4
2022-08-16T22:30:01.237Z,23.4
2022-08-16T22:35:11.659Z,23.4
2022-08-16T22:40:13.695Z,23.4
2022-08-16T22:45:19.866Z,23.4
2022-08-16T22:50:26.079Z,23.4
2022-08-16T22:55:32.280Z,23.4
2022-08-16T23:00:38.491Z,23.3
2022-08-16T23:05:44.698Z,23.2
2022-08-16T23:10:50.909Z,23.2
2022-08-16T23:15:57.117Z,23.1
2022-08-16T23:21:03.325Z,23.1
2022-08-16T23:41:28.157Z,23.0
2022-08-16T23:46:33.396Z,23.0
2022-08-16T23:51:45.730Z,23.0
2022-08-16T23:56:50.966Z,22.9
